Russian Mission, Alaska
Current Conditions -  °F | °C
As of 11:56 AM on Thursday 18 Dec 2014 (Local Time) from PARS Reporting Station
Clear Clear  
Wind Chill: 18°   Ceiling: Unl
Heat Index: 18°   Visibility: 10mi
Dew Point: 15°   Wind: 0mph
Humidity: 88%   Direction: NA
Pressure: 29.48"   Gusts: NA
Location:  61.78°N, 161.32°W
Report Text: PARS 182056Z AUTO 00000KT 10SM CLR M08/M09 A2948 RMK AO2 TSNO 56012 T10771094 SLP989 $
Loading
Personal Weather Stations






























Interactive Weather Map New forecast layout! Learn more

10-Day Weather Forecast

Advertisements
Track Severe Weather on mobile